Saint George, Kansas
Current Conditions -  °F | °C
As of 4:52 AM on Wednesday 22 Oct 2014 (Local Time) from KMHK Reporting Station
Clear Clear  
Wind Chill: 59°   Ceiling: Unl
Heat Index: 59°   Visibility: 10mi
Dew Point: 48°   Wind: 3mph
Humidity: 67%   Direction: 140°SE
Pressure: 30.08"   Gusts: NA
Location:  39.19°N, 96.42°W
Report Text: KMHK 220952Z AUTO 14003KT 10SM CLR 15/09 A3008 RMK AO2 SLP180 T01500089 TSNO
Loading
Personal Weather Stations






























Interactive Weather Map
Tropical Storm Tracking
New forecast layout! Learn more

10-Day Weather Forecast

Advertisements
Track Severe Weather on mobile